Time;durP1;ratioP1;P1;durP2;ratioP2;P2;SDS_P1;SDS_P2;PMS_P1;PMS_P2;Temp;Humidity;BMP_temperature;BMP_pressure;BME280_temperature;BME280_humidity;BME280_pressure;Samples;Min_cycle;Max_cycle;Signal;HPM_P1;HPM_P2
2022/10/15 00:02:50;;;;;;;31.70;14.93;;;;;;;11.46;99.80;100508.25;10487474;28;20056;-83
2022/10/15 00:07:52;;;;;;;35.72;17.20;;;;;;;11.44;99.78;100496.88;10525989;28;20041;-82
2022/10/15 00:12:54;;;;;;;32.80;17.20;;;;;;;11.40;99.80;100487.22;10523540;28;20159;-82
2022/10/15 00:17:56;;;;;;;32.33;17.58;;;;;;;11.39;99.96;100489.84;10525557;28;20040;-83
2022/10/15 00:22:57;;;;;;;37.65;15.63;;;;;;;11.42;99.92;100495.97;10500900;28;20687;-81
2022/10/15 00:27:59;;;;;;;35.58;16.55;;;;;;;11.37;100.00;100496.81;10520877;28;20348;-82
2022/10/15 00:33:01;;;;;;;31.77;17.38;;;;;;;11.36;99.98;100490.69;10487172;28;20048;-82
2022/10/15 00:38:03;;;;;;;47.15;20.25;;;;;;;11.34;100.00;100499.41;10499823;28;20067;-82
2022/10/15 00:43:10;;;;;;;31.58;16.60;;;;;;;11.28;100.00;100498.47;10500126;28;20049;-82
2022/10/15 00:48:12;;;;;;;40.88;17.90;;;;;;;11.26;100.00;100499.31;10514347;28;20049;-83
2022/10/15 00:53:14;;;;;;;41.95;19.85;;;;;;;11.20;100.00;100499.25;10522948;28;20127;-82
2022/10/15 00:58:27;;;;;;;39.00;18.50;;;;;;;11.11;100.00;100494.84;10519873;28;20066;-82
2022/10/15 01:03:29;;;;;;;45.67;20.35;;;;;;;11.04;100.00;100488.63;10518960;28;20154;-81
2022/10/15 01:08:30;;;;;;;42.53;19.23;;;;;;;11.03;100.00;100502.59;10518401;28;20446;-82
2022/10/15 01:13:50;;;;;;;39.95;19.67;;;;;;;11.01;100.00;100493.84;10522603;28;20071;-83
2022/10/15 01:19:06;;;;;;;47.80;20.33;;;;;;;11.07;100.00;100504.38;10499491;28;20048;-81
2022/10/15 01:24:21;;;;;;;47.03;20.10;;;;;;;11.16;100.00;100487.88;10495502;28;20105;-83
2022/10/15 01:29:41;;;;;;;45.60;21.10;;;;;;;11.18;100.00;100485.28;10493766;28;20411;-84
2022/10/15 01:35:12;;;;;;;48.25;20.92;;;;;;;11.24;100.00;100491.44;10499824;28;20076;-82
2022/10/15 01:40:26;;;;;;;47.50;18.90;;;;;;;11.18;100.00;100475.66;10481151;28;20135;-83
2022/10/15 01:45:39;;;;;;;49.30;20.15;;;;;;;11.18;100.00;100480.91;10520636;28;20075;-83
2022/10/15 01:50:59;;;;;;;50.90;20.58;;;;;;;11.22;100.00;100466.97;10491102;28;20131;-82
2022/10/15 01:56:12;;;;;;;48.05;19.40;;;;;;;11.24;100.00;100475.72;10480492;28;20044;-82
2022/10/15 02:01:14;;;;;;;54.78;20.17;;;;;;;11.28;100.00;100466.16;10493183;28;20045;-79
2022/10/15 02:06:30;;;;;;;55.13;21.75;;;;;;;11.27;100.00;100464.38;10486441;28;20122;-79
2022/10/15 02:11:45;;;;;;;60.85;22.20;;;;;;;11.28;100.00;100466.16;10476246;28;20036;-80
2022/10/15 02:16:58;;;;;;;57.20;21.60;;;;;;;11.29;100.00;100463.56;10486736;28;20048;-80
2022/10/15 02:22:12;;;;;;;60.10;21.60;;;;;;;11.32;100.00;100458.34;10492180;28;20274;-80
2022/10/15 02:27:15;;;;;;;59.25;21.35;;;;;;;11.32;100.00;100463.56;10474004;28;20037;-81
2022/10/15 02:32:20;;;;;;;58.17;23.33;;;;;;;11.31;100.00;100453.06;10480431;28;20068;-79
2022/10/15 02:37:26;;;;;;;53.95;21.25;;;;;;;11.30;100.00;100454.84;10479832;28;20423;-79
2022/10/15 02:42:29;;;;;;;49.97;19.92;;;;;;;11.27;100.00;100456.53;10476072;28;20656;-81
2022/10/15 02:47:31;;;;;;;65.82;23.38;;;;;;;11.29;100.00;100465.31;10475221;28;20486;-79
2022/10/15 02:52:35;;;;;;;58.83;21.40;;;;;;;11.28;100.00;100453.06;10468286;28;20048;-80
2022/10/15 02:57:37;;;;;;;60.35;23.15;;;;;;;11.26;100.00;100452.13;10492117;28;20091;-79
2022/10/15 03:02:40;;;;;;;59.05;20.90;;;;;;;11.22;100.00;100453.00;10473341;28;20327;-82
2022/10/15 03:07:42;;;;;;;55.47;20.65;;;;;;;11.20;100.00;100449.47;10489261;28;20040;-82
2022/10/15 03:12:44;;;;;;;54.90;20.92;;;;;;;11.17;100.00;100450.34;10494260;28;20066;-79
2022/10/15 03:17:46;;;;;;;62.03;21.83;;;;;;;11.17;100.00;100452.06;10488890;28;20052;-81
2022/10/15 03:22:51;;;;;;;55.28;21.55;;;;;;;11.14;100.00;100459.03;10489719;28;20064;-82
2022/10/15 03:27:53;;;;;;;53.13;21.20;;;;;;;11.14;100.00;100459.03;10486461;28;20067;-79
2022/10/15 03:33:01;;;;;;;53.95;20.92;;;;;;;11.15;100.00;100446.81;10489048;28;20531;-80
2022/10/15 03:38:04;;;;;;;56.97;21.20;;;;;;;11.13;100.00;100452.03;10487339;28;20799;-81
2022/10/15 03:43:06;;;;;;;57.03;21.25;;;;;;;11.16;100.00;100447.72;10498810;28;20139;-79
2022/10/15 03:48:08;;;;;;;51.80;21.75;;;;;;;11.12;100.00;100452.91;10504988;28;20138;-79
2022/10/15 03:53:10;;;;;;;59.47;21.77;;;;;;;11.08;100.00;100453.75;10491049;28;20040;-79
2022/10/15 03:58:12;;;;;;;52.78;21.35;;;;;;;11.06;100.00;100444.97;10476409;28;20043;-79
2022/10/15 04:03:22;;;;;;;52.35;19.48;;;;;;;11.02;100.00;100445.84;10490233;28;20064;-82
2022/10/15 04:08:23;;;;;;;53.85;20.95;;;;;;;10.96;100.00;100443.16;10492129;28;20040;-80
2022/10/15 04:13:27;;;;;;;60.65;21.15;;;;;;;10.94;100.00;100439.63;10504151;28;20090;-85
2022/10/15 04:18:29;;;;;;;64.80;21.13;;;;;;;10.92;100.00;100436.13;10493356;28;20086;-82
2022/10/15 04:23:32;;;;;;;61.45;22.15;;;;;;;10.85;100.00;100439.53;10496280;28;20047;-83
2022/10/15 04:28:55;;;;;;;69.38;21.60;;;;;;;10.86;100.00;100442.16;10475758;28;20058;-82
2022/10/15 04:33:57;;;;;;;62.88;20.80;;;;;;;10.88;100.00;100434.31;10493336;28;20048;-83
2022/10/15 04:39:00;;;;;;;64.03;22.02;;;;;;;10.88;100.00;100439.56;10502848;28;20059;-81
2022/10/15 04:44:11;;;;;;;62.50;22.30;;;;;;;10.83;100.00;100441.28;10500982;28;20151;-81
2022/10/15 04:49:14;;;;;;;71.43;23.17;;;;;;;10.79;100.00;100441.22;10486552;28;20055;-82
2022/10/15 04:54:15;;;;;;;67.45;20.92;;;;;;;10.75;100.00;100449.91;10488937;28;20036;-82
2022/10/15 04:59:30;;;;;;;66.60;22.95;;;;;;;10.73;100.00;100446.41;10489327;28;20056;-81
2022/10/15 05:04:51;;;;;;;66.15;21.13;;;;;;;10.73;100.00;100446.41;10514482;28;20052;-82
2022/10/15 05:09:53;;;;;;;71.80;23.25;;;;;;;10.70;100.00;100454.19;10512723;28;20044;-84
2022/10/15 05:14:55;;;;;;;66.80;21.98;;;;;;;10.68;100.00;100450.69;10499121;28;20136;-83
2022/10/15 05:20:01;;;;;;;66.80;21.58;;;;;;;10.66;100.00;100449.81;10501189;28;20059;-81
2022/10/15 05:25:04;;;;;;;65.20;23.35;;;;;;;10.64;100.00;100451.53;10497531;28;20669;-82
2022/10/15 05:30:09;;;;;;;63.63;20.92;;;;;;;10.63;100.00;100455.03;10481659;28;20130;-81
2022/10/15 05:35:19;;;;;;;64.18;22.25;;;;;;;10.65;100.00;100463.75;10497900;28;20058;-84
2022/10/15 05:40:27;;;;;;;58.55;20.08;;;;;;;10.60;100.00;100457.59;10491526;28;20090;-82
2022/10/15 05:45:41;;;;;;;71.00;21.55;;;;;;;10.54;100.00;100452.31;10475168;28;20183;-83
2022/10/15 05:50:43;;;;;;;58.33;20.50;;;;;;;10.50;100.00;100453.97;10499384;28;20056;-82
2022/10/15 05:55:52;;;;;;;66.40;21.42;;;;;;;10.49;100.00;100457.44;10495309;28;20135;-82
2022/10/15 06:00:58;;;;;;;50.10;19.15;;;;;;;10.47;100.00;100461.81;10505611;28;20078;-85
2022/10/15 06:06:00;;;;;;;55.00;20.17;;;;;;;10.36;100.00;100461.69;10502272;28;20037;-81
2022/10/15 06:11:09;;;;;;;63.03;20.83;;;;;;;10.35;100.00;100454.66;10517094;28;20045;-82
2022/10/15 06:16:13;;;;;;;54.38;19.48;;;;;;;10.32;100.00;100465.06;10489624;28;20032;-82
2022/10/15 06:21:20;;;;;;;61.25;20.23;;;;;;;10.38;100.00;100465.19;10514069;28;20040;-82
2022/10/15 06:26:22;;;;;;;58.78;20.30;;;;;;;10.42;100.00;100469.59;10502920;28;20063;-83
2022/10/15 06:31:24;;;;;;;52.78;19.95;;;;;;;10.42;100.00;100476.59;10497625;28;20045;-83
2022/10/15 06:36:26;;;;;;;56.42;18.65;;;;;;;10.42;100.00;100469.59;10506069;28;20145;-86
2022/10/15 06:41:27;;;;;;;56.55;19.98;;;;;;;10.47;100.00;100472.28;10494046;28;20043;-82
2022/10/15 06:46:29;;;;;;;55.60;19.15;;;;;;;10.52;100.00;100477.56;10474579;28;20036;-83
2022/10/15 06:51:31;;;;;;;51.53;19.27;;;;;;;10.51;100.00;100481.94;10498119;28;20040;-83
2022/10/15 06:56:35;;;;;;;53.15;20.25;;;;;;;10.62;100.00;100476.81;10522181;28;20047;-83
2022/10/15 07:01:37;;;;;;;55.28;19.85;;;;;;;10.75;100.00;100488.31;10522090;28;20106;-86
2022/10/15 07:06:42;;;;;;;60.15;22.08;;;;;;;10.86;100.00;100494.56;10488874;28;20040;-85
2022/10/15 07:11:45;;;;;;;53.30;20.02;;;;;;;11.09;100.00;100488.69;10517414;28;20044;-82
2022/10/15 07:16:46;;;;;;;54.53;20.92;;;;;;;11.29;100.00;100494.13;10492640;28;20399;-82
2022/10/15 07:21:48;;;;;;;58.15;20.77;;;;;;;12.09;100.00;100500.03;10501226;28;20048;-82
2022/10/15 07:26:51;;;;;;;62.65;22.52;;;;;;;12.62;99.70;100502.94;10478497;28;20041;-85
2022/10/15 07:31:53;;;;;;;60.60;21.13;;;;;;;12.87;98.79;100502.13;10505679;28;20495;-83
2022/10/15 07:36:55;;;;;;;56.55;20.50;;;;;;;13.79;97.80;100490.00;10488818;28;20055;-80
2022/10/15 07:41:56;;;;;;;62.00;21.73;;;;;;;15.61;95.67;100491.81;10484865;28;20041;-78
2022/10/15 07:46:58;;;;;;;58.88;22.42;;;;;;;17.49;90.85;100496.69;10494887;28;20052;-79
2022/10/15 07:51:59;;;;;;;48.53;19.35;;;;;;;16.50;85.75;100500.66;10496733;28;20548;-78
2022/10/15 07:57:03;;;;;;;43.13;19.10;;;;;;;15.48;85.00;100485.78;10491217;28;20531;-79
2022/10/15 08:02:05;;;;;;;49.42;19.50;;;;;;;15.14;85.08;100493.06;10494352;28;20135;-82
2022/10/15 08:07:06;;;;;;;41.42;16.88;;;;;;;14.13;85.06;100476.78;10491230;28;20040;-78
2022/10/15 08:12:10;;;;;;;32.40;15.70;;;;;;;13.60;86.64;100478.59;10477036;28;20075;-78
2022/10/15 08:17:12;;;;;;;34.88;15.65;;;;;;;13.53;87.81;100480.38;10496684;28;20152;-79
2022/10/15 08:22:14;;;;;;;38.97;18.17;;;;;;;13.54;88.87;100483.88;10505037;28;20117;-81
2022/10/15 08:27:15;;;;;;;38.85;19.00;;;;;;;13.32;89.15;100477.72;10479362;28;20049;-79
2022/10/15 08:32:17;;;;;;;38.05;17.73;;;;;;;13.38;89.99;100481.25;10507025;28;20098;-77
2022/10/15 08:37:18;;;;;;;44.47;18.20;;;;;;;13.32;90.18;100489.09;10482755;28;20040;-78
2022/10/15 08:42:30;;;;;;;48.08;19.58;;;;;;;13.26;90.58;100495.22;10505297;28;20050;-79
2022/10/15 08:47:55;;;;;;;44.38;20.25;;;;;;;13.11;90.91;100486.44;10484426;28;20523;-77
2022/10/15 08:52:58;;;;;;;43.58;20.25;;;;;;;13.06;91.33;100481.16;10502286;28;20583;-78
2022/10/15 08:58:20;;;;;;;45.15;20.40;;;;;;;13.22;91.76;100477.66;10502888;28;20040;-79
2022/10/15 09:04:01;;;;;;;44.40;20.98;;;;;;;13.25;91.91;100490.81;10490641;28;20112;-79
2022/10/15 09:09:14;;;;;;;50.50;22.63;;;;;;;13.38;92.07;100478.59;10483645;28;20126;-78
2022/10/15 09:14:26;;;;;;;46.10;22.58;;;;;;;13.50;91.98;100488.25;10457775;28;20051;-79
2022/10/15 09:19:28;;;;;;;44.83;20.55;;;;;;;13.68;91.79;100482.13;10496448;28;20051;-78
2022/10/15 09:24:30;;;;;;;50.28;23.05;;;;;;;13.75;91.74;100477.72;10511057;28;20047;-79
2022/10/15 09:29:48;;;;;;;48.88;20.27;;;;;;;14.08;91.67;100470.66;10481079;28;20032;-79
2022/10/15 09:34:59;;;;;;;51.22;23.95;;;;;;;14.93;91.45;100470.34;10494526;28;20059;-80
2022/10/15 09:40:31;;;;;;;50.40;22.02;;;;;;;15.76;89.83;100469.69;10486299;28;20051;-80
2022/10/15 09:45:33;;;;;;;44.28;20.98;;;;;;;15.60;87.70;100466.34;10492484;28;20052;-78
2022/10/15 09:50:41;;;;;;;43.22;21.42;;;;;;;15.78;86.76;100470.63;10500822;28;20720;-79
2022/10/15 09:56:06;;;;;;;49.50;21.65;;;;;;;16.43;85.69;100462.84;10484903;28;20118;-80
2022/10/15 10:01:17;;;;;;;43.20;22.48;;;;;;;16.65;84.36;100469.63;10493824;28;20036;-80
2022/10/15 10:06:21;;;;;;;36.63;20.58;;;;;;;16.64;83.35;100467.91;10493653;28;20450;-79
2022/10/15 10:11:24;;;;;;;40.60;20.30;;;;;;;16.51;83.06;100461.88;10497582;28;20472;-81
2022/10/15 10:16:28;;;;;;;37.40;17.50;;;;;;;16.02;82.63;100452.78;10452958;28;20057;-82
2022/10/15 10:21:36;;;;;;;37.45;18.42;;;;;;;16.26;82.70;100456.91;10482847;28;20036;-80
2022/10/15 10:26:37;;;;;;;34.83;17.52;;;;;;;16.07;82.51;100461.53;10502573;28;20040;-80
2022/10/15 10:31:42;;;;;;;33.33;16.92;;;;;;;16.03;82.31;100462.44;10494237;28;20066;-82
2022/10/15 10:36:50;;;;;;;34.33;17.20;;;;;;;16.18;82.15;100462.28;10485094;28;20155;-82
2022/10/15 10:41:57;;;;;;;34.47;16.48;;;;;;;15.95;82.24;100466.94;10498825;28;20041;-82
2022/10/15 10:47:21;;;;;;;37.97;17.38;;;;;;;15.95;82.58;100461.66;10493170;28;20052;-81
2022/10/15 10:52:30;;;;;;;38.40;17.80;;;;;;;15.85;82.62;100469.69;10483482;28;20040;-81
2022/10/15 10:57:47;;;;;;;30.02;16.42;;;;;;;15.59;82.92;100464.59;10500919;28;20036;-79
2022/10/15 11:02:50;;;;;;;31.20;16.70;;;;;;;15.55;83.20;100457.56;10476828;28;20114;-80
2022/10/15 11:08:30;;;;;;;30.80;16.50;;;;;;;15.44;83.34;100462.94;10487172;28;20078;-82
2022/10/15 11:13:46;;;;;;;24.15;14.55;;;;;;;15.53;82.90;100454.09;10471214;28;20122;-82
2022/10/15 11:18:48;;;;;;;27.85;14.57;;;;;;;15.47;82.91;100443.59;10513928;28;20044;-82
2022/10/15 11:24:02;;;;;;;25.80;13.60;;;;;;;15.94;82.59;100438.78;10493133;28;20052;-79
2022/10/15 11:29:07;;;;;;;25.88;14.60;;;;;;;15.85;81.88;100445.91;10481406;28;20053;-79
2022/10/15 11:34:24;;;;;;;26.13;13.93;;;;;;;15.63;81.44;100455.75;10464313;28;20494;-78
2022/10/15 11:40:05;;;;;;;26.98;13.73;;;;;;;15.21;82.00;100449.94;10455552;28;20060;-82
2022/10/15 11:45:13;;;;;;;23.13;11.32;;;;;;;15.05;82.21;100445.66;10476082;28;20072;-79
2022/10/15 11:50:29;;;;;;;27.60;14.10;;;;;;;14.95;82.49;100431.66;10490346;28;20268;-80
2022/10/15 11:55:55;;;;;;;27.95;13.90;;;;;;;15.07;83.07;100428.06;10491227;28;20040;-79
2022/10/15 12:01:02;;;;;;;30.30;14.70;;;;;;;15.22;83.11;100412.13;10463577;28;20040;-79
2022/10/15 12:06:08;;;;;;;29.20;14.40;;;;;;;15.36;83.19;100399.69;10492777;28;20619;-79
2022/10/15 12:11:29;;;;;;;26.70;14.63;;;;;;;15.70;82.93;100388.84;10476267;28;20112;-80
2022/10/15 12:16:43;;;;;;;27.57;15.23;;;;;;;16.15;81.72;100376.91;10474894;28;20049;-81
2022/10/15 12:21:45;;;;;;;25.60;13.02;;;;;;;16.44;81.12;100373.91;10493267;28;20037;-81
2022/10/15 12:26:47;;;;;;;25.55;13.65;;;;;;;16.31;79.76;100364.38;10502283;28;20107;-81
2022/10/15 12:31:55;;;;;;;26.45;13.25;;;;;;;16.18;79.64;100361.91;10498177;28;20131;-81
2022/10/15 12:37:05;;;;;;;26.48;13.45;;;;;;;15.92;80.24;100356.06;10472153;28;20040;-84
2022/10/15 12:42:24;;;;;;;26.35;13.18;;;;;;;15.64;80.51;100354.59;10493215;28;20404;-80
2022/10/15 12:47:45;;;;;;;25.38;13.60;;;;;;;15.54;81.03;100345.88;10511298;28;20093;-81
2022/10/15 12:52:55;;;;;;;27.73;13.50;;;;;;;15.74;81.12;100343.00;10522512;28;20054;-80
2022/10/15 12:58:00;;;;;;;23.77;13.48;;;;;;;15.82;81.35;100337.72;10496325;28;20097;-80
2022/10/15 13:03:24;;;;;;;25.02;13.35;;;;;;;15.99;81.06;100326.94;10517432;28;20046;-82
2022/10/15 13:08:27;;;;;;;23.10;12.77;;;;;;;16.08;81.20;100337.38;10500196;28;20048;-78
2022/10/15 13:13:31;;;;;;;20.23;11.80;;;;;;;16.13;81.21;100334.66;10484364;28;20048;-77
2022/10/15 13:18:32;;;;;;;20.85;12.18;;;;;;;15.93;81.05;100329.66;10481395;28;20082;-78
2022/10/15 13:23:34;;;;;;;21.40;12.18;;;;;;;15.81;81.52;100329.81;10485830;28;20503;-78
2022/10/15 13:28:38;;;;;;;20.85;11.85;;;;;;;15.96;81.45;100315.50;10492036;28;20090;-78
2022/10/15 13:33:42;;;;;;;19.02;11.98;;;;;;;15.94;81.48;100327.88;10510780;28;20048;-80
2022/10/15 13:39:02;;;;;;;19.50;11.98;;;;;;;15.74;82.17;100326.31;10509442;28;20184;-79
2022/10/15 13:44:05;;;;;;;21.35;12.82;;;;;;;15.51;83.28;100323.94;10499209;28;20090;-82
2022/10/15 13:49:11;;;;;;;20.65;12.85;;;;;;;15.38;84.18;100318.78;10498952;28;20515;-79
2022/10/15 13:54:18;;;;;;;21.17;13.90;;;;;;;15.40;85.52;100310.84;10496178;28;20040;-81
2022/10/15 13:59:21;;;;;;;23.38;14.93;;;;;;;15.43;85.97;100309.94;10515745;28;20733;-81
2022/10/15 14:04:23;;;;;;;23.00;13.30;;;;;;;15.33;87.04;100304.78;10509860;28;20050;-81
2022/10/15 14:09:29;;;;;;;22.25;13.55;;;;;;;15.14;87.83;100297.94;10499172;28;20037;-78
2022/10/15 14:14:40;;;;;;;24.38;15.10;;;;;;;15.03;88.62;100288.34;10474588;28;20507;-78
2022/10/15 14:19:48;;;;;;;26.63;16.05;;;;;;;14.86;89.66;100292.88;10502827;28;20040;-81
2022/10/15 14:25:10;;;;;;;25.38;14.68;;;;;;;14.89;90.25;100292.84;10483997;28;20052;-80
2022/10/15 14:30:32;;;;;;;26.63;15.63;;;;;;;14.93;90.79;100299.84;10467862;28;20086;-82
2022/10/15 14:35:36;;;;;;;27.90;15.68;;;;;;;14.84;91.23;100302.56;10502677;28;20044;-81
2022/10/15 14:40:38;;;;;;;24.73;14.93;;;;;;;14.67;91.80;100298.31;10502630;28;20125;-77
2022/10/15 14:45:57;;;;;;;24.60;15.50;;;;;;;14.61;92.03;100302.78;10460366;28;20090;-77
2022/10/15 14:51:02;;;;;;;29.83;14.87;;;;;;;14.57;92.80;100303.63;10495417;28;20047;-77
2022/10/15 14:56:18;;;;;;;28.33;14.18;;;;;;;14.54;93.30;100301.88;10489597;28;20039;-77
2022/10/15 15:01:20;;;;;;;26.40;14.18;;;;;;;14.60;93.52;100296.56;10466317;28;20052;-78
2022/10/15 15:06:22;;;;;;;23.73;13.82;;;;;;;14.61;94.19;100290.47;10495809;28;20894;-78
2022/10/15 15:11:24;;;;;;;24.00;14.13;;;;;;;14.65;94.54;100288.66;10498342;28;20040;-79
2022/10/15 15:16:26;;;;;;;25.48;12.23;;;;;;;14.58;94.58;100293.09;10489966;28;20054;-78
2022/10/15 15:21:28;;;;;;;21.95;12.63;;;;;;;14.53;95.16;100289.59;10505813;28;20366;-79
2022/10/15 15:26:30;;;;;;;21.05;11.02;;;;;;;14.52;95.24;100286.97;10489241;28;20037;-79
2022/10/15 15:31:32;;;;;;;21.02;11.82;;;;;;;14.47;95.57;100284.38;10472948;28;20039;-78
2022/10/15 15:36:34;;;;;;;16.77;10.30;;;;;;;14.46;95.73;100287.91;10485149;28;20124;-79
2022/10/15 15:41:36;;;;;;;18.95;9.93;;;;;;;14.46;96.13;100282.63;10493136;28;20036;-79
2022/10/15 15:46:38;;;;;;;16.67;8.77;;;;;;;14.50;96.28;100289.63;10493232;28;20048;-83
2022/10/15 15:51:40;;;;;;;16.75;9.20;;;;;;;14.45;96.54;100286.16;10500491;28;20547;-84
2022/10/15 15:56:42;;;;;;;14.70;8.55;;;;;;;14.43;96.82;100288.78;10497166;28;20036;-82
2022/10/15 16:01:45;;;;;;;14.32;7.88;;;;;;;14.44;97.09;100290.56;10503919;28;20048;-81
2022/10/15 16:06:48;;;;;;;13.93;7.15;;;;;;;14.49;97.43;100293.16;10499202;28;20037;-80
2022/10/15 16:11:51;;;;;;;11.65;6.18;;;;;;;14.46;97.47;100298.44;10488521;28;20427;-83
2022/10/15 16:16:53;;;;;;;12.07;6.65;;;;;;;14.46;97.57;100295.81;10509453;28;20041;-80
2022/10/15 16:21:54;;;;;;;11.65;6.63;;;;;;;14.48;98.01;100312.47;10500778;28;20095;-80
2022/10/15 16:26:56;;;;;;;10.68;5.93;;;;;;;14.48;98.09;100312.47;10517574;28;20044;-82
2022/10/15 16:31:58;;;;;;;10.50;6.15;;;;;;;14.50;98.19;100303.69;10524306;28;20048;-82
2022/10/15 16:36:59;;;;;;;12.32;6.07;;;;;;;14.52;98.67;100313.31;10496779;28;20046;-81
2022/10/15 16:42:01;;;;;;;9.80;5.70;;;;;;;14.54;98.45;100311.56;10510517;28;20048;-80
2022/10/15 16:47:03;;;;;;;9.60;5.38;;;;;;;14.53;98.36;100315.94;10501783;28;20052;-80
2022/10/15 16:52:05;;;;;;;9.63;5.80;;;;;;;14.47;98.76;100322.13;10477263;28;20051;-82
2022/10/15 16:57:06;;;;;;;8.18;5.50;;;;;;;14.52;98.89;100329.13;10484561;28;20054;-80
2022/10/15 17:02:08;;;;;;;9.40;5.68;;;;;;;14.50;98.64;100344.94;10499832;28;20075;-80
2022/10/15 17:07:10;;;;;;;11.40;6.28;;;;;;;14.53;98.58;100336.16;10501278;28;20055;-80
2022/10/15 17:12:12;;;;;;;10.65;5.38;;;;;;;14.48;98.95;100344.06;10505644;28;20040;-81
2022/10/15 17:17:14;;;;;;;10.90;5.85;;;;;;;14.42;98.79;100350.25;10471933;28;20048;-80
2022/10/15 17:22:16;;;;;;;9.40;6.47;;;;;;;14.43;98.81;100357.28;10490268;28;20052;-84
2022/10/15 17:27:17;;;;;;;8.88;6.05;;;;;;;14.46;98.85;100366.94;10482626;28;20052;-82
2022/10/15 17:32:19;;;;;;;10.13;6.45;;;;;;;14.46;98.87;100373.06;10487760;28;20090;-79
2022/10/15 17:37:21;;;;;;;9.05;5.85;;;;;;;14.44;98.99;100374.84;10495313;28;20236;-80
2022/10/15 17:42:23;;;;;;;9.38;6.13;;;;;;;14.36;98.94;100384.53;10491559;28;20048;-79
2022/10/15 17:47:26;;;;;;;11.20;6.20;;;;;;;14.29;98.85;100399.50;10482521;28;20055;-80
2022/10/15 17:52:28;;;;;;;9.57;6.10;;;;;;;14.23;99.00;100402.16;10493122;28;20036;-80
2022/10/15 17:57:30;;;;;;;9.85;6.50;;;;;;;14.14;98.81;100407.44;10497760;28;20150;-80
2022/10/15 18:02:32;;;;;;;10.18;6.70;;;;;;;14.10;98.83;100416.25;10484881;28;20041;-79
2022/10/15 18:07:34;;;;;;;9.60;6.57;;;;;;;14.02;98.79;100434.72;10493964;28;20508;-81
2022/10/15 18:12:35;;;;;;;11.43;7.20;;;;;;;13.93;98.90;100447.88;10495223;28;20041;-80
2022/10/15 18:17:37;;;;;;;10.95;6.40;;;;;;;13.93;98.76;100454.03;10505958;28;20135;-78
2022/10/15 18:22:39;;;;;;;10.93;5.63;;;;;;;13.89;98.83;100462.78;10485879;28;20045;-80
2022/10/15 18:27:41;;;;;;;13.05;6.70;;;;;;;13.93;98.93;100477.72;10481345;28;20047;-79
2022/10/15 18:32:43;;;;;;;12.13;6.60;;;;;;;13.91;99.03;100481.22;10501074;28;20500;-79
2022/10/15 18:37:45;;;;;;;11.30;5.90;;;;;;;13.90;99.18;100496.16;10477762;28;20044;-79
2022/10/15 18:42:47;;;;;;;10.35;6.28;;;;;;;13.90;99.31;100511.94;10481129;28;20114;-81
2022/10/15 18:47:53;;;;;;;12.20;6.22;;;;;;;13.90;99.27;100524.19;10497586;28;20136;-79
2022/10/15 18:52:54;;;;;;;9.55;6.10;;;;;;;13.83;99.15;100523.34;10506645;28;20037;-79
2022/10/15 18:57:59;;;;;;;13.75;5.55;;;;;;;13.76;99.17;100526.84;10508763;28;20056;-81
2022/10/15 19:03:01;;;;;;;9.88;5.25;;;;;;;13.70;98.95;100532.09;10511732;28;20546;-80
2022/10/15 19:08:05;;;;;;;10.60;5.95;;;;;;;13.64;98.69;100548.75;10506843;28;20097;-80
2022/10/15 19:13:06;;;;;;;10.90;5.53;;;;;;;13.54;98.77;100547.91;10507687;28;20052;-80
2022/10/15 19:18:10;;;;;;;9.90;5.38;;;;;;;13.47;98.74;100572.44;10488262;28;20059;-80
2022/10/15 19:23:12;;;;;;;13.77;5.78;;;;;;;13.45;98.59;100568.94;10485119;28;20044;-79
2022/10/15 19:28:14;;;;;;;14.40;5.75;;;;;;;13.35;98.42;100568.03;10471749;28;20044;-79
2022/10/15 19:33:17;;;;;;;9.20;5.28;;;;;;;13.36;98.21;100574.16;10482951;28;20071;-79
2022/10/15 19:38:19;;;;;;;9.75;5.30;;;;;;;13.30;98.23;100582.88;10476559;28;20051;-79
2022/10/15 19:43:22;;;;;;;10.68;5.63;;;;;;;13.24;98.09;100585.47;10506977;28;20059;-80
2022/10/15 19:48:23;;;;;;;12.48;5.15;;;;;;;13.18;98.13;100591.63;10494857;28;20051;-79
2022/10/15 19:53:25;;;;;;;9.63;4.72;;;;;;;13.17;98.03;100586.34;10468341;28;20036;-80
2022/10/15 19:58:27;;;;;;;13.30;5.80;;;;;;;13.15;98.01;100601.22;10489453;28;20047;-79
2022/10/15 20:03:29;;;;;;;10.18;5.60;;;;;;;13.09;97.90;100595.09;10500882;28;20044;-79
2022/10/15 20:08:36;;;;;;;11.65;6.10;;;;;;;13.08;98.12;100589.81;10500177;28;20040;-79
2022/10/15 20:13:38;;;;;;;11.32;6.43;;;;;;;13.04;98.01;100603.81;10470943;28;20048;-80
2022/10/15 20:18:39;;;;;;;11.65;5.75;;;;;;;13.02;98.15;100600.31;10488093;28;20511;-79
2022/10/15 20:23:44;;;;;;;9.90;5.25;;;;;;;13.00;98.01;100615.19;10482638;28;20051;-80
2022/10/15 20:28:46;;;;;;;13.85;5.38;;;;;;;12.94;98.00;100613.44;10506260;28;20450;-79
2022/10/15 20:33:47;;;;;;;9.98;4.95;;;;;;;12.82;98.12;100619.50;10483873;28;20054;-80
2022/10/15 20:38:50;;;;;;;11.13;5.97;;;;;;;12.81;98.04;100635.25;10504708;28;20063;-80
2022/10/15 20:43:55;;;;;;;10.85;5.47;;;;;;;12.76;97.97;100640.50;10501609;28;20052;-79
2022/10/15 20:49:01;;;;;;;11.93;5.88;;;;;;;12.79;97.99;100645.75;10486080;28;20060;-80
2022/10/15 20:54:11;;;;;;;14.48;6.30;;;;;;;12.71;97.83;100650.06;10489773;28;20040;-79
2022/10/15 20:59:13;;;;;;;11.45;5.95;;;;;;;12.70;97.86;100640.41;10501182;28;20765;-82
2022/10/15 21:04:15;;;;;;;12.98;5.82;;;;;;;12.66;97.85;100651.81;10498415;28;20032;-81
2022/10/15 21:09:17;;;;;;;10.40;5.68;;;;;;;12.60;97.77;100646.50;10484935;28;20040;-78
2022/10/15 21:14:18;;;;;;;10.45;5.63;;;;;;;12.58;97.67;100648.22;10499488;28;20048;-79
2022/10/15 21:19:20;;;;;;;11.65;5.97;;;;;;;12.53;97.67;100646.44;10484467;28;20110;-81
2022/10/15 21:24:26;;;;;;;15.05;5.65;;;;;;;12.51;97.51;100650.81;10506753;28;20032;-79
2022/10/15 21:29:28;;;;;;;12.00;5.50;;;;;;;12.49;97.65;100641.16;10502443;28;20044;-79
2022/10/15 21:34:30;;;;;;;15.68;5.78;;;;;;;12.45;97.06;100642.91;10506031;28;20071;-79
2022/10/15 21:39:32;;;;;;;12.05;5.65;;;;;;;12.41;97.27;100643.75;10500466;28;20044;-79
2022/10/15 21:44:34;;;;;;;12.25;5.85;;;;;;;12.36;97.26;100651.59;10492974;28;20402;-79
2022/10/15 21:49:36;;;;;;;12.90;6.68;;;;;;;12.30;97.22;100662.03;10499207;28;20071;-79
2022/10/15 21:54:37;;;;;;;13.40;5.70;;;;;;;12.29;97.11;100667.28;10509630;28;20040;-79
2022/10/15 21:59:39;;;;;;;10.30;4.97;;;;;;;12.22;97.14;100686.47;10473527;28;20074;-79
2022/10/15 22:04:40;;;;;;;11.57;5.75;;;;;;;12.17;97.20;100689.97;10493674;28;20492;-80
2022/10/15 22:09:42;;;;;;;11.32;4.88;;;;;;;12.19;97.30;100688.22;10507127;28;20044;-79
2022/10/15 22:14:44;;;;;;;12.80;5.85;;;;;;;12.24;97.25;100682.13;10511300;28;20681;-79
2022/10/15 22:19:45;;;;;;;11.13;5.15;;;;;;;12.24;97.17;100690.88;10506927;28;20040;-80
2022/10/15 22:24:47;;;;;;;9.88;4.45;;;;;;;12.24;96.96;100692.63;10492742;28;20051;-80
2022/10/15 22:29:49;;;;;;;10.25;3.85;;;;;;;12.23;96.97;100701.38;10506570;28;20114;-79
2022/10/15 22:34:55;;;;;;;11.43;3.65;;;;;;;12.24;96.65;100703.13;10492895;28;20044;-79
2022/10/15 22:39:57;;;;;;;8.20;3.72;;;;;;;12.21;96.39;100701.34;10508560;28;20062;-78
2022/10/15 22:44:58;;;;;;;9.38;3.42;;;;;;;12.20;95.98;100718.84;10509879;28;20048;-80
2022/10/15 22:50:01;;;;;;;12.20;4.15;;;;;;;12.18;95.76;100719.69;10502015;28;20129;-79
2022/10/15 22:55:08;;;;;;;7.53;3.60;;;;;;;12.11;95.49;100720.50;10498726;28;20431;-79